Time;durP1;ratioP1;P1;durP2;ratioP2;P2;SDS_P1;SDS_P2;PMS_P1;PMS_P2;Temp;Humidity;BMP_temperature;BMP_pressure;BME280_temperature;BME280_humidity;BME280_pressure;Samples;Min_cycle;Max_cycle;Signal;HPM_P1;HPM_P2
2022/04/30 00:00:16;104611.00;0.35;181.53;0.00;0.00;0.62;;;;;17.40;1.00;;;;;;2271334;61;1929;-85
2022/04/30 00:02:43;103523.00;0.35;179.65;0.00;0.00;0.62;;;;;17.20;1.00;;;;;;2271585;61;1509;-85
2022/04/30 00:05:11;168454.00;0.56;291.60;0.00;0.00;0.62;;;;;17.00;1.00;;;;;;2271647;61;1549;-87
2022/04/30 00:10:29;622437.00;2.07;1072.98;83741.00;0.28;145.50;;;;;16.70;1.00;;;;;;2251419;61;1487;-88
2022/04/30 00:13:03;281113.00;0.94;485.45;0.00;0.00;0.62;;;;;16.80;1.00;;;;;;2251363;61;1212;-85
2022/04/30 00:15:34;46054.00;0.15;80.36;0.00;0.00;0.62;;;;;16.80;1.00;;;;;;2251482;61;1077;-84
2022/04/30 00:18:06;182139.00;0.61;315.17;0.00;0.00;0.62;;;;;17.20;1.00;;;;;;2282248;55;3970;-86
2022/04/30 00:20:37;153624.00;0.51;266.05;0.00;0.00;0.62;;;;;17.00;1.00;;;;;;2275971;61;1932;-87
2022/04/30 00:23:05;106354.00;0.35;184.54;0.00;0.00;0.62;;;;;17.10;1.00;;;;;;2276107;61;2214;-87
2022/04/30 00:25:41;62482.00;0.21;108.77;0.00;0.00;0.62;;;;;16.80;1.00;;;;;;2276124;61;902;-88
2022/04/30 00:28:12;247462.00;0.82;427.59;368.00;0.00;1.26;;;;;16.90;1.00;;;;;;2276050;61;1051;-88
2022/04/30 00:30:45;322196.00;1.07;556.07;0.00;0.00;0.62;;;;;16.60;1.00;;;;;;2275912;61;1456;-86
2022/04/30 00:33:23;376634.00;1.26;649.64;11190.00;0.04;20.01;;;;;16.60;1.00;;;;;;2276046;61;986;-86
2022/04/30 00:35:55;135930.00;0.45;235.55;0.00;0.00;0.62;;;;;16.50;1.00;;;;;;2275916;61;1585;-89
2022/04/30 00:38:24;133926.00;0.45;232.10;0.00;0.00;0.62;;;;;16.60;1.00;;;;;;2275897;61;2009;-86
2022/04/30 00:40:57;328036.00;1.09;566.11;0.00;0.00;0.62;;;;;16.60;1.00;;;;;;2275819;61;1283;-86
2022/04/30 00:43:28;301767.00;1.01;520.96;0.00;0.00;0.62;;;;;16.30;1.00;;;;;;2275986;61;1507;-86
2022/04/30 00:46:06;242316.00;0.81;418.73;0.00;0.00;0.62;;;;;16.40;1.00;;;;;;2275954;61;1650;-89
2022/04/30 00:48:38;95908.00;0.32;166.51;0.00;0.00;0.62;;;;;16.50;1.00;;;;;;2275954;61;1008;-90
2022/04/30 00:51:18;180028.00;0.60;311.54;0.00;0.00;0.62;;;;;16.70;1.00;;;;;;2275738;61;1643;-87
2022/04/30 00:53:51;54974.00;0.18;95.79;0.00;0.00;0.62;;;;;16.90;1.00;;;;;;2275899;61;1744;-87
2022/04/30 00:56:35;431894.00;1.44;744.64;45594.00;0.15;79.57;;;;;16.80;1.00;;;;;;2275913;61;1632;-87
2022/04/30 00:59:05;269051.00;0.90;464.71;0.00;0.00;0.62;;;;;17.10;1.00;;;;;;2275789;61;1915;-87
2022/04/30 01:01:59;161136.00;0.54;279.00;0.00;0.00;0.62;;;;;17.20;1.00;;;;;;2275782;61;1584;-88
2022/04/30 01:04:30;910819.00;3.04;1575.13;214025.00;0.71;370.06;;;;;16.90;1.00;;;;;;2275895;61;1474;-88
2022/04/30 01:07:08;1494928.00;4.98;2633.58;295211.00;0.98;509.69;;;;;16.90;1.00;;;;;;2275925;61;1610;-89
2022/04/30 01:09:40;1288951.00;4.30;2251.90;129165.00;0.43;223.89;;;;;17.20;1.00;;;;;;2276421;61;1374;-87
2022/04/30 01:12:43;1140245.00;3.80;1982.55;31253.00;0.10;54.75;;;;;17.40;1.00;;;;;;2276608;61;1579;-88
2022/04/30 01:15:30;306708.00;1.02;529.45;0.00;0.00;0.62;;;;;17.30;1.00;;;;;;2276461;61;1749;-84
2022/04/30 01:17:58;454998.00;1.52;784.38;0.00;0.00;0.62;;;;;17.10;1.00;;;;;;2315966;55;3775;-85
2022/04/30 01:20:34;639035.00;2.13;1101.67;143720.00;0.48;248.98;;;;;16.80;1.00;;;;;;2307598;40;3623;-86
2022/04/30 01:23:13;776342.00;2.59;1339.89;0.00;0.00;0.62;;;;;16.60;1.00;;;;;;2285505;60;1609;-88
2022/04/30 01:25:52;237668.00;0.79;410.74;0.00;0.00;0.62;;;;;16.60;1.00;;;;;;2284670;60;1553;-87
2022/04/30 01:28:22;304923.00;1.02;526.38;0.00;0.00;0.62;;;;;16.50;1.00;;;;;;2284559;60;1488;-86
2022/04/30 01:30:53;258271.00;0.86;446.18;0.00;0.00;0.62;;;;;16.40;1.00;;;;;;2284628;60;1539;-87
2022/04/30 01:41:45;104498.00;0.35;181.34;0.00;0.00;0.62;;;;;15.60;1.00;;;;;;2284782;60;1581;-87
2022/04/30 01:44:20;297740.00;0.99;514.04;0.00;0.00;0.62;;;;;14.90;1.00;;;;;;2284763;60;1480;-88
2022/04/30 01:46:58;209317.00;0.70;361.96;0.00;0.00;0.62;;;;;14.60;1.00;;;;;;2284771;60;1708;-89
2022/04/30 01:49:30;147369.00;0.49;255.27;0.00;0.00;0.62;;;;;14.40;1.00;;;;;;2284695;60;1679;-87
2022/04/30 01:52:05;13170.00;0.04;23.44;0.00;0.00;0.62;;;;;14.80;1.00;;;;;;2284702;60;1003;-87
2022/04/30 01:54:44;228789.00;0.76;395.47;0.00;0.00;0.62;;;;;15.20;1.00;;;;;;2284596;60;1513;-88
2022/04/30 01:57:12;85813.00;0.29;149.08;11620.00;0.04;20.76;;;;;16.00;1.00;;;;;;2284759;60;1106;-87
2022/04/30 01:59:48;303411.00;1.01;523.78;0.00;0.00;0.62;;;;;16.40;1.00;;;;;;2284498;60;2001;-86
2022/04/30 02:02:21;313231.00;1.04;540.66;86116.00;0.29;149.60;;;;;16.60;1.00;;;;;;2284687;60;1465;-88
2022/04/30 02:04:52;260363.00;0.87;449.77;82649.00;0.28;143.61;;;;;16.70;1.00;;;;;;2284666;60;1508;-87
2022/04/30 02:07:24;349191.00;1.16;602.47;82385.00;0.27;143.16;;;;;16.20;1.00;;;;;;2284779;60;1062;-87
2022/04/30 02:09:57;229232.00;0.76;396.23;77369.00;0.26;134.49;;;;;15.90;1.00;;;;;;2284839;60;1446;-86
2022/04/30 02:12:26;322517.00;1.08;556.62;90820.00;0.30;157.72;;;;;15.80;1.00;;;;;;2284622;60;1630;-87
2022/04/30 02:14:58;583699.00;1.95;1006.08;77531.00;0.26;134.77;;;;;15.80;1.00;;;;;;2284661;60;1393;-86
2022/04/30 02:17:26;297036.00;0.99;512.82;83586.00;0.28;145.23;;;;;16.10;1.00;;;;;;2284700;60;1419;-87
2022/04/30 02:22:47;442573.00;1.48;763.01;77524.00;0.26;134.76;;;;;17.00;1.00;;;;;;2283554;60;1162;-89
2022/04/30 02:25:21;380086.00;1.27;655.57;77251.00;0.26;134.29;;;;;17.20;1.00;;;;;;2284460;60;1113;-86
2022/04/30 02:28:04;1440421.00;4.80;2531.50;304581.00;1.02;525.79;;;;;17.40;1.00;;;;;;2284602;60;1602;-87
2022/04/30 02:30:37;1339675.00;4.47;2344.90;78816.00;0.26;136.99;;;;;17.00;1.00;;;;;;2284360;60;1756;-88
2022/04/30 02:33:17;1493325.00;4.98;2630.57;122862.00;0.41;213.02;;;;;16.70;1.00;;;;;;2284526;60;1521;-87
2022/04/30 02:35:58;1015711.00;3.39;1760.32;3897.00;0.01;7.37;;;;;16.30;1.00;;;;;;2284518;60;971;-86
2022/04/30 02:38:38;453660.00;1.51;782.08;22200.00;0.07;39.08;;;;;16.40;1.00;;;;;;2284369;60;1672;-87
2022/04/30 02:41:29;195127.00;0.65;337.54;0.00;0.00;0.62;;;;;16.70;1.00;;;;;;2284465;60;1997;-85
2022/04/30 02:43:59;389282.00;1.30;671.38;62967.00;0.21;109.61;;;;;16.80;1.00;;;;;;2284351;60;1643;-86
2022/04/30 02:46:32;229413.00;0.76;396.54;0.00;0.00;0.62;;;;;16.80;1.00;;;;;;2284474;60;1091;-85
2022/04/30 02:51:49;273436.00;0.91;472.25;148.00;0.00;0.88;;;;;17.30;1.00;;;;;;2284209;60;1368;-87
2022/04/30 02:54:20;704678.00;2.35;1215.35;108212.00;0.36;187.74;;;;;16.90;1.00;;;;;;2284426;60;1611;-89
2022/04/30 02:57:04;209761.00;0.70;362.72;0.00;0.00;0.62;;;;;16.80;1.00;;;;;;2284269;60;1331;-86
2022/04/30 03:02:24;34317.00;0.11;60.05;0.00;0.00;0.62;;;;;17.00;1.00;;;;;;2284502;60;640;-88
2022/04/30 03:04:52;152640.00;0.51;264.36;0.00;0.00;0.62;;;;;17.10;1.00;;;;;;2284410;60;991;-86
2022/04/30 03:07:22;208438.00;0.69;360.45;0.00;0.00;0.62;;;;;16.80;1.00;;;;;;2284477;60;1407;-86
2022/04/30 03:09:50;251096.00;0.84;433.84;0.00;0.00;0.62;;;;;16.00;1.00;;;;;;2284501;60;1587;-88
2022/04/30 03:12:22;346034.00;1.15;597.04;0.00;0.00;0.62;;;;;15.10;1.00;;;;;;2283986;60;1423;-86
2022/04/30 03:14:54;317068.00;1.06;547.26;12365.00;0.04;22.05;;;;;14.50;1.00;;;;;;2284574;60;1627;-88
2022/04/30 03:23:11;152148.00;0.51;263.51;20563.00;0.07;36.25;;;;;15.10;1.00;;;;;;2271650;61;1616;-88
2022/04/30 03:25:39;274794.00;0.92;474.59;0.00;0.00;0.62;;;;;15.50;1.00;;;;;;2282005;60;1682;-88
2022/04/30 03:28:11;173646.00;0.58;300.55;0.00;0.00;0.62;;;;;15.40;1.00;;;;;;2284231;60;1000;-91
2022/04/30 03:30:42;335143.00;1.12;578.33;62442.00;0.21;108.70;;;;;15.50;1.00;;;;;;2284261;60;2812;-90
2022/04/30 03:33:26;377236.00;1.26;650.67;0.00;0.00;0.62;;;;;15.60;1.00;;;;;;2284374;60;1517;-88
2022/04/30 03:36:10;;;;;;;;;;;;;;;;;;;;;
2022/04/30 03:38:47;633706.00;2.11;1092.46;92399.00;0.31;160.45;;;;;15.40;1.00;;;;;;2284320;60;1276;-88
2022/04/30 03:41:24;710703.00;2.37;1225.80;171498.00;0.57;296.85;;;;;15.20;1.00;;;;;;2284311;60;1997;-90
2022/04/30 03:43:55;525733.00;1.75;906.14;87580.00;0.29;152.13;;;;;15.60;1.00;;;;;;2284425;60;913;-88
2022/04/30 03:46:26;443901.00;1.48;765.29;82893.00;0.28;144.03;;;;;15.90;1.00;;;;;;2284128;60;1130;-86
2022/04/30 03:49:07;310353.00;1.03;535.72;84297.00;0.28;146.46;;;;;16.10;1.00;;;;;;2284295;60;1043;-87
2022/04/30 03:51:40;1488294.00;4.96;2621.11;213374.00;0.71;368.94;;;;;16.30;1.00;;;;;;2284057;60;1618;-88
2022/04/30 03:54:18;1091318.00;3.64;1894.90;61596.00;0.21;107.24;;;;;16.30;1.00;;;;;;2284317;60;1552;-86
2022/04/30 03:57:09;579286.00;1.93;998.47;49261.00;0.16;85.91;;;;;15.70;1.00;;;;;;2283917;60;1631;-86
2022/04/30 03:59:50;125394.00;0.42;217.39;0.00;0.00;0.62;;;;;15.90;1.00;;;;;;2284162;60;1981;-85
2022/04/30 04:02:24;317268.00;1.06;547.60;21560.00;0.07;37.97;;;;;16.10;1.00;;;;;;2281089;55;3951;-85
2022/04/30 04:04:55;146815.00;0.49;254.32;0.00;0.00;0.62;;;;;15.80;1.00;;;;;;2276195;61;1002;-85
2022/04/30 04:07:24;298251.00;0.99;514.91;0.00;0.00;0.62;;;;;15.80;1.00;;;;;;2276033;61;1607;-84
2022/04/30 04:12:27;1082123.00;3.61;1878.48;32390.00;0.11;56.72;;;;;16.20;1.00;;;;;;2273725;61;1431;-88
2022/04/30 04:17:54;253705.00;0.85;438.32;0.00;0.00;0.62;;;;;16.70;1.00;;;;;;1615869;59;1893;-87
2022/04/30 04:20:38;292216.00;0.97;504.54;0.00;0.00;0.62;;;;;16.50;1.00;;;;;;2278988;61;2004;-85
2022/04/30 04:23:13;505781.00;1.69;871.78;99660.00;0.33;172.98;;;;;16.40;1.00;;;;;;2280246;61;1555;-88
2022/04/30 04:31:22;194732.00;0.65;336.86;0.00;0.00;0.62;;;;;16.70;1.00;;;;;;2279469;61;1295;-89
2022/04/30 04:33:55;369362.00;1.23;637.14;24388.00;0.08;42.87;;;;;16.70;1.00;;;;;;2280065;61;1544;-87
2022/04/30 04:36:34;383706.00;1.28;661.80;37831.00;0.13;66.14;;;;;16.80;1.00;;;;;;2280103;61;1521;-86
2022/04/30 04:44:41;317960.00;1.06;548.79;53268.00;0.18;92.84;;;;;16.80;1.00;;;;;;2280660;61;1571;-88
2022/04/30 04:47:17;427362.00;1.42;736.85;0.00;0.00;0.62;;;;;16.90;1.00;;;;;;2280857;61;1597;-87
2022/04/30 04:49:55;396409.00;1.32;683.63;0.00;0.00;0.62;;;;;16.90;1.00;;;;;;2280801;61;1650;-88
2022/04/30 04:52:31;486512.00;1.62;838.61;54653.00;0.18;95.23;;;;;16.90;1.00;;;;;;2280902;61;1617;-88
2022/04/30 04:55:04;890274.00;2.97;1539.04;216703.00;0.72;374.67;;;;;17.00;1.00;;;;;;2280966;61;1121;-86
2022/04/30 04:57:38;519273.00;1.73;895.01;78219.00;0.26;135.96;;;;;16.80;1.00;;;;;;2280737;61;1634;-89
2022/04/30 05:00:13;767463.00;2.56;1324.44;123406.00;0.41;213.96;;;;;16.90;1.00;;;;;;2280583;61;2004;-88
2022/04/30 05:02:45;407334.00;1.36;702.41;92323.00;0.31;160.32;;;;;16.80;1.00;;;;;;2280570;61;1591;-88
2022/04/30 05:05:14;123427360.00;411.42;76176800.00;108143.00;0.36;187.63;;;;;16.80;1.00;;;;;;2280618;61;1516;-88
2022/04/30 05:07:44;860392.00;2.87;1486.66;193599.00;0.65;334.90;;;;;16.70;1.00;;;;;;2280526;61;1701;-87
2022/04/30 05:10:11;504162.00;1.68;868.99;80351.00;0.27;139.64;;;;;16.80;1.00;;;;;;2280460;61;1368;-88
2022/04/30 05:12:38;366538.00;1.22;632.29;96575.00;0.32;167.66;;;;;16.80;1.00;;;;;;2280494;61;1416;-86
2022/04/30 05:15:06;408044.00;1.36;703.63;82669.00;0.28;143.65;;;;;16.70;1.00;;;;;;2280716;61;1055;-88
2022/04/30 05:17:34;368217.00;1.23;635.17;79771.00;0.27;138.64;;;;;16.70;1.00;;;;;;2280558;61;1522;-88
2022/04/30 05:20:03;309699.00;1.03;534.59;89480.00;0.30;155.41;;;;;16.60;1.00;;;;;;2280593;61;1913;-88
2022/04/30 05:22:33;120022112.00;400.07;70038744.00;78881.00;0.26;137.10;;;;;16.60;1.00;;;;;;2280551;61;1683;-87
2022/04/30 05:25:00;593258.00;1.98;1022.58;102975.00;0.34;178.71;;;;;16.50;1.00;;;;;;2280615;61;1419;-88
2022/04/30 05:27:31;539807.00;1.80;930.39;71682.00;0.24;124.67;;;;;16.70;1.00;;;;;;2280666;61;1558;-87
2022/04/30 05:30:02;420087.00;1.40;724.34;77703.00;0.26;135.07;;;;;16.30;1.00;;;;;;2280331;61;1724;-87
2022/04/30 05:32:34;590598.00;1.97;1017.99;84550.00;0.28;146.90;;;;;15.80;1.00;;;;;;2280549;61;1607;-86
2022/04/30 05:35:01;1206440.00;4.02;2101.87;156664.00;0.52;271.29;;;;;15.60;1.00;;;;;;2280421;61;1495;-87
2022/04/30 05:37:28;847663.00;2.83;1464.38;171423.00;0.57;296.72;;;;;15.50;1.00;;;;;;2280540;61;1425;-88
2022/04/30 05:40:00;701832.00;2.34;1210.42;110220.00;0.37;191.21;;;;;15.60;1.00;;;;;;2280511;61;2001;-88
2022/04/30 05:42:29;803011.00;2.68;1386.38;91122.00;0.30;158.25;;;;;15.50;1.00;;;;;;2280502;61;964;-87
2022/04/30 05:45:01;1413482.00;4.71;2481.35;176993.00;0.59;306.31;;;;;15.50;1.00;;;;;;2280454;61;1614;-87
2022/04/30 05:47:28;1044153.00;3.48;1810.83;56573.00;0.19;98.55;;;;;15.50;1.00;;;;;;2280524;61;2189;-89
2022/04/30 05:49:55;952725.00;3.18;1648.92;106254.00;0.35;184.37;;;;;15.60;1.00;;;;;;2280473;61;1465;-87
2022/04/30 05:52:24;1011664.00;3.37;1753.14;98141.00;0.33;170.36;;;;;15.90;1.00;;;;;;2280583;61;932;-86
2022/04/30 05:54:53;1001590.00;3.34;1735.29;148595.00;0.50;257.39;;;;;15.70;1.00;;;;;;2280357;61;961;-87
2022/04/30 05:57:21;1023312.00;3.41;1773.80;38697.00;0.13;67.63;;;;;16.10;1.00;;;;;;2280519;61;1613;-87
2022/04/30 05:59:48;693429.00;2.31;1195.85;72348.00;0.24;125.82;;;;;16.30;1.00;;;;;;2280505;61;1383;-87
2022/04/30 06:02:15;412162.00;1.37;710.71;77125.00;0.26;134.07;;;;;16.30;1.00;;;;;;2280401;61;2020;-88
2022/04/30 06:04:42;673972.00;2.25;1162.13;53511.00;0.18;93.26;;;;;16.00;1.00;;;;;;2280495;61;1156;-86
2022/04/30 06:07:09;425847.00;1.42;734.24;81017.00;0.27;140.79;;;;;16.20;1.00;;;;;;2280478;61;1590;-86
2022/04/30 06:09:36;451073.00;1.50;777.63;85747.00;0.29;148.96;;;;;16.60;1.00;;;;;;2280378;61;1390;-87
2022/04/30 06:12:05;930852.00;3.10;1610.37;79887.00;0.27;138.84;;;;;16.80;1.00;;;;;;2280440;61;1605;-85
2022/04/30 06:14:34;999046.00;3.33;1730.78;105077.00;0.35;182.33;;;;;16.80;1.00;;;;;;2285239;39;3623;-88
2022/04/30 06:17:01;545582.00;1.82;940.34;74126.00;0.25;128.89;;;;;16.70;1.00;;;;;;2272325;61;1624;-86
2022/04/30 06:19:28;779813.00;2.60;1345.94;83998.00;0.28;145.94;;;;;16.90;1.00;;;;;;2272510;61;994;-87
2022/04/30 06:21:55;943942.00;3.15;1633.43;172644.00;0.58;298.82;;;;;17.10;1.00;;;;;;2268329;61;2014;-87
2022/04/30 06:24:22;785105.00;2.62;1355.16;82117.00;0.27;142.69;;;;;17.20;1.00;;;;;;2268320;61;1297;-85
2022/04/30 06:26:49;744669.00;2.48;1284.79;84768.00;0.28;147.27;;;;;17.20;1.00;;;;;;2268620;61;1042;-87
2022/04/30 06:29:16;117647824.00;392.16;65960320.00;105516.00;0.35;183.09;;;;;17.40;1.00;;;;;;2268679;61;983;-85
2022/04/30 06:31:45;518367.00;1.73;893.45;90393.00;0.30;156.99;;;;;17.40;1.00;;;;;;2268379;61;1408;-88
2022/04/30 06:36:53;1006537.00;3.36;1744.05;191361.00;0.64;331.05;;;;;17.40;1.00;;;;;;2268180;61;1618;-87
2022/04/30 06:39:20;271938.00;0.91;469.68;85427.00;0.28;148.41;;;;;17.30;1.00;;;;;;2268323;61;964;-86
2022/04/30 06:41:47;595693.00;1.99;1026.78;95927.00;0.32;166.54;;;;;17.50;1.00;;;;;;2268229;61;2014;-87
2022/04/30 06:44:14;342289.00;1.14;590.61;15258.00;0.05;27.06;;;;;17.50;1.00;;;;;;2268385;61;1034;-87
2022/04/30 06:46:41;114921.00;0.38;199.32;0.00;0.00;0.62;;;;;17.40;1.00;;;;;;2268214;61;1518;-86
2022/04/30 06:49:09;99807.00;0.33;173.24;0.00;0.00;0.62;;;;;17.50;1.00;;;;;;2268061;61;952;-86
2022/04/30 06:51:36;52318.00;0.17;91.19;0.00;0.00;0.62;;;;;17.90;1.00;;;;;;2268191;61;1369;-88
2022/04/30 06:59:37;45577.00;0.15;79.54;0.00;0.00;0.62;;;;;17.90;1.00;;;;;;2268151;61;1337;-87
2022/04/30 07:02:06;98614.00;0.33;171.18;10366.00;0.03;18.58;;;;;17.70;1.00;;;;;;2268172;61;1978;-87
2022/04/30 07:04:35;113182.00;0.38;196.32;18129.00;0.06;32.03;;;;;18.10;1.00;;;;;;2268105;61;1538;-87
2022/04/30 07:07:02;50046.00;0.17;87.27;0.00;0.00;0.62;;;;;18.30;1.00;;;;;;2268143;61;1087;-89
2022/04/30 07:09:32;80740.00;0.27;140.32;0.00;0.00;0.62;;;;;18.10;1.00;;;;;;2268125;61;1331;-88
2022/04/30 07:11:59;215229.00;0.72;372.13;0.00;0.00;0.62;;;;;18.10;1.00;;;;;;2268070;61;1477;-87
2022/04/30 07:14:26;205972.00;0.69;356.20;0.00;0.00;0.62;;;;;18.10;1.00;;;;;;2267954;61;1610;-86
2022/04/30 07:16:53;243930.00;0.81;421.51;0.00;0.00;0.62;;;;;18.30;1.00;;;;;;2268195;61;944;-86
2022/04/30 07:19:20;236352.00;0.79;408.48;26620.00;0.09;46.73;;;;;18.30;1.00;;;;;;2268039;61;1555;-85
2022/04/30 07:21:49;187764.00;0.63;324.86;0.00;0.00;0.62;;;;;18.30;1.00;;;;;;2268134;61;2007;-86
2022/04/30 07:24:16;208336.00;0.69;360.27;67521.00;0.23;117.48;;;;;18.10;1.00;;;;;;2268148;61;1124;-88
2022/04/30 07:26:43;232797.00;0.78;402.36;10877.00;0.04;19.47;;;;;18.00;1.00;;;;;;2268131;61;945;-86
2022/04/30 07:29:10;437654.00;1.46;754.55;78571.00;0.26;136.57;;;;;18.10;1.00;;;;;;2268083;61;1078;-86
2022/04/30 07:31:37;629909.00;2.10;1085.89;91393.00;0.30;158.71;;;;;18.30;1.00;;;;;;2267986;61;2139;-85
2022/04/30 07:34:05;171642.00;0.57;297.09;0.00;0.00;0.62;;;;;18.50;1.00;;;;;;2267923;61;1076;-87
2022/04/30 07:36:32;50467.00;0.17;87.99;0.00;0.00;0.62;;;;;18.60;1.00;;;;;;2268070;61;1133;-85
2022/04/30 07:39:02;82648.00;0.28;143.61;0.00;0.00;0.62;;;;;18.60;1.00;;;;;;2268114;61;992;-85
2022/04/30 07:41:29;67879.00;0.23;118.10;0.00;0.00;0.62;;;;;18.80;1.00;;;;;;2268010;61;1914;-85
2022/04/30 07:43:56;92572.00;0.31;160.75;0.00;0.00;0.62;;;;;18.80;1.00;;;;;;2268039;61;1052;-86
2022/04/30 07:46:23;17251.00;0.06;30.51;0.00;0.00;0.62;;;;;18.70;1.00;;;;;;2267995;61;1721;-86
2022/04/30 07:48:50;37778.00;0.13;66.04;0.00;0.00;0.62;;;;;18.90;1.00;;;;;;2268015;61;1486;-87
2022/04/30 07:51:19;85580.00;0.29;148.67;0.00;0.00;0.62;;;;;18.90;1.00;;;;;;2267993;61;2136;-86
2022/04/30 07:53:46;120185.00;0.40;208.40;0.00;0.00;0.62;;;;;18.80;1.00;;;;;;2267865;61;2029;-86
2022/04/30 07:56:16;179627.00;0.60;310.85;0.00;0.00;0.62;;;;;18.80;1.00;;;;;;2267798;61;1467;-86
2022/04/30 07:58:43;156224.00;0.52;270.53;0.00;0.00;0.62;;;;;18.80;1.00;;;;;;2267972;61;1090;-87
2022/04/30 08:01:10;244411.00;0.81;422.34;21690.00;0.07;38.20;;;;;18.80;1.00;;;;;;2268005;61;1987;-85
2022/04/30 08:03:40;148989.00;0.50;258.07;16058.00;0.05;28.44;;;;;18.70;1.00;;;;;;2267973;61;1031;-87
2022/04/30 08:06:07;57343.00;0.19;99.88;0.00;0.00;0.62;;;;;18.70;1.00;;;;;;2267885;61;1085;-85
2022/04/30 08:08:34;33551.00;0.11;58.73;0.00;0.00;0.62;;;;;18.70;1.00;;;;;;2267950;61;933;-86
2022/04/30 08:11:01;79040.00;0.26;137.38;0.00;0.00;0.62;;;;;18.60;1.00;;;;;;2267900;61;1394;-86
2022/04/30 08:13:29;243645.00;0.81;421.02;0.00;0.00;0.62;;;;;18.50;1.00;;;;;;2267984;61;1130;-86
2022/04/30 08:15:56;131780.00;0.44;228.40;0.00;0.00;0.62;;;;;18.30;1.00;;;;;;2267747;61;1449;-86
2022/04/30 08:18:24;237.00;0.00;1.03;0.00;0.00;0.62;;;;;18.30;1.00;;;;;;2267824;61;1112;-84
2022/04/30 08:20:51;77199.00;0.26;134.20;0.00;0.00;0.62;;;;;18.30;1.00;;;;;;2267698;61;1911;-86
2022/04/30 08:23:19;28657.00;0.10;50.26;0.00;0.00;0.62;;;;;18.30;1.00;;;;;;2267897;61;1128;-87
2022/04/30 08:25:46;38137.00;0.13;66.66;0.00;0.00;0.62;;;;;18.40;1.00;;;;;;2268142;61;1789;-86
2022/04/30 08:28:13;77620.00;0.26;134.93;0.00;0.00;0.62;;;;;18.40;1.00;;;;;;2268122;61;1084;-88
2022/04/30 08:30:42;84924.00;0.28;147.54;0.00;0.00;0.62;;;;;18.50;1.00;;;;;;2268075;61;1392;-85
2022/04/30 08:33:09;57533.00;0.19;100.21;0.00;0.00;0.62;;;;;18.50;1.00;;;;;;2268150;61;1046;-86
2022/04/30 08:35:36;204542.00;0.68;353.74;27611.00;0.09;48.45;;;;;18.30;1.00;;;;;;2268106;61;1123;-87
2022/04/30 08:38:03;115259.00;0.38;199.90;0.00;0.00;0.62;;;;;18.50;1.00;;;;;;2268162;61;1057;-86
2022/04/30 08:40:30;33024.00;0.11;57.82;0.00;0.00;0.62;;;;;18.70;1.00;;;;;;2268133;61;1338;-85
2022/04/30 08:43:08;247703.00;0.83;428.00;0.00;0.00;0.62;;;;;18.80;1.00;;;;;;2268103;61;1926;-86
2022/04/30 08:45:38;47001.00;0.16;82.00;0.00;0.00;0.62;;;;;18.80;1.00;;;;;;2268151;61;1445;-86
2022/04/30 08:48:09;103244.00;0.34;179.17;0.00;0.00;0.62;;;;;19.00;1.00;;;;;;2268039;61;1119;-85
2022/04/30 08:50:36;5561.00;0.02;10.26;0.00;0.00;0.62;;;;;19.10;1.00;;;;;;2268093;61;1262;-86
2022/04/30 08:53:03;83068.00;0.28;144.34;0.00;0.00;0.62;;;;;19.00;1.00;;;;;;2268178;61;2181;-87
2022/04/30 08:55:31;164256.00;0.55;284.37;0.00;0.00;0.62;;;;;18.40;1.00;;;;;;2268057;61;1031;-86
2022/04/30 08:57:59;0.00;0.00;0.62;0.00;0.00;0.62;;;;;18.40;1.00;;;;;;2268092;61;1408;-86
2022/04/30 09:00:25;53256.00;0.18;92.82;0.00;0.00;0.62;;;;;18.50;1.00;;;;;;2268058;61;1331;-86
2022/04/30 09:02:54;230377.00;0.77;398.20;0.00;0.00;0.62;;;;;18.40;1.00;;;;;;2267952;61;2224;-86
2022/04/30 09:05:30;0.00;0.00;0.62;0.00;0.00;0.62;;;;;18.20;1.00;;;;;;2268041;61;1570;-87
2022/04/30 09:07:59;320340.00;1.07;552.88;42768.00;0.14;74.68;;;;;17.60;1.00;;;;;;2268001;61;1072;-87
2022/04/30 09:10:29;23955.00;0.08;42.12;0.00;0.00;0.62;;;;;17.80;1.00;;;;;;2267996;61;1602;-86
2022/04/30 09:13:09;45742.00;0.15;79.82;0.00;0.00;0.62;;;;;17.70;1.00;;;;;;2267962;61;1458;-88
2022/04/30 09:15:38;176786.00;0.59;305.95;0.00;0.00;0.62;;;;;17.70;1.00;;;;;;2267821;61;1064;-88
2022/04/30 09:18:08;57069.00;0.19;99.41;0.00;0.00;0.62;;;;;17.30;1.00;;;;;;2267905;61;1093;-87
2022/04/30 09:20:48;232449.00;0.77;401.76;0.00;0.00;0.62;;;;;17.40;1.00;;;;;;2267969;61;1407;-86
2022/04/30 09:23:25;184556.00;0.62;319.34;51981.00;0.17;90.61;;;;;17.60;1.00;;;;;;2267944;61;1939;-84
2022/04/30 09:25:53;33203.00;0.11;58.13;0.00;0.00;0.62;;;;;17.50;1.00;;;;;;2268070;61;1020;-86
2022/04/30 09:28:25;0.00;0.00;0.62;0.00;0.00;0.62;;;;;17.90;1.00;;;;;;2268323;61;1507;-86
2022/04/30 09:31:03;135450.00;0.45;234.73;0.00;0.00;0.62;;;;;18.00;1.00;;;;;;2268629;61;1467;-86
2022/04/30 09:33:30;161623.00;0.54;279.84;0.00;0.00;0.62;;;;;18.00;1.00;;;;;;2268756;61;1588;-87
2022/04/30 09:38:49;0.00;0.00;0.62;0.00;0.00;0.62;;;;;18.10;1.00;;;;;;2268644;61;615;-85
2022/04/30 09:41:23;292649.00;0.98;505.28;0.00;0.00;0.62;;;;;18.50;1.00;;;;;;2268603;61;1912;-87
2022/04/30 09:44:02;251407.00;0.84;434.37;0.00;0.00;0.62;;;;;18.30;1.00;;;;;;2268509;61;1323;-87
2022/04/30 09:46:29;60999.00;0.20;106.20;0.00;0.00;0.62;;;;;18.20;1.00;;;;;;2268616;61;1755;-87
2022/04/30 09:54:28;22210.00;0.07;39.10;0.00;0.00;0.62;;;;;18.40;1.00;;;;;;2268767;61;678;-88
2022/04/30 09:56:59;28814.00;0.10;50.53;0.00;0.00;0.62;;;;;18.40;1.00;;;;;;2268738;61;1703;-88
2022/04/30 09:59:27;505717.00;1.69;871.67;116719.00;0.39;202.42;;;;;18.70;1.00;;;;;;2268661;61;891;-87
2022/04/30 10:01:55;316751.00;1.06;546.71;0.00;0.00;0.62;;;;;19.20;1.00;;;;;;2268203;61;1927;-87
2022/04/30 10:04:24;115925.00;0.39;201.05;0.00;0.00;0.62;;;;;19.10;1.00;;;;;;2268439;61;987;-89
2022/04/30 10:06:53;135506.00;0.45;234.82;0.00;0.00;0.62;;;;;18.70;1.00;;;;;;2268726;61;964;-88
2022/04/30 10:09:26;206711.00;0.69;357.47;0.00;0.00;0.62;;;;;18.90;1.00;;;;;;2268704;61;990;-89
2022/04/30 10:12:02;204491.00;0.68;353.65;0.00;0.00;0.62;;;;;19.40;1.00;;;;;;2268557;61;1446;-88
2022/04/30 10:14:47;0.00;0.00;0.62;0.00;0.00;0.62;;;;;19.60;1.00;;;;;;2268474;61;1143;-88
2022/04/30 10:17:17;0.00;0.00;0.62;0.00;0.00;0.62;;;;;19.90;1.00;;;;;;2268519;61;1532;-89
2022/04/30 10:19:58;174679.00;0.58;302.33;0.00;0.00;0.62;;;;;19.50;1.00;;;;;;2268540;61;1668;-89
2022/04/30 10:22:28;79148.00;0.26;137.57;0.00;0.00;0.62;;;;;19.30;1.00;;;;;;2268588;61;2006;-88
2022/04/30 10:24:57;218451.00;0.73;377.68;0.00;0.00;0.62;;;;;19.20;1.00;;;;;;2268529;61;977;-89
2022/04/30 10:27:25;219644.00;0.73;379.73;26571.00;0.09;46.65;;;;;19.60;1.00;;;;;;2268544;61;1543;-86
2022/04/30 10:29:54;184129.00;0.61;318.60;0.00;0.00;0.62;;;;;20.10;1.00;;;;;;2268582;61;1349;-88
2022/04/30 10:32:29;123875.00;0.41;214.77;0.00;0.00;0.62;;;;;20.60;1.00;;;;;;2268446;61;999;-87
2022/04/30 10:34:57;229902.00;0.77;397.38;0.00;0.00;0.62;;;;;20.40;1.00;;;;;;2268341;61;1554;-88
2022/04/30 10:37:30;375951.00;1.25;648.47;83333.00;0.28;144.79;;;;;20.50;1.00;;;;;;2268264;61;1425;-87
2022/04/30 10:39:59;305219.00;1.02;526.89;0.00;0.00;0.62;;;;;20.20;1.00;;;;;;2268227;61;1560;-87
2022/04/30 10:42:30;212830.00;0.71;368.01;0.00;0.00;0.62;;;;;20.20;1.00;;;;;;2268328;61;1990;-87
2022/04/30 10:44:58;357265.00;1.19;616.35;47444.00;0.16;82.77;;;;;20.40;1.00;;;;;;2268436;61;1736;-87
2022/04/30 10:47:25;175053.00;0.58;302.97;29750.00;0.10;52.15;;;;;20.40;1.00;;;;;;2268421;61;1825;-85
2022/04/30 10:49:53;161932.00;0.54;280.37;0.00;0.00;0.62;;;;;19.90;1.00;;;;;;2268436;61;1307;-86
2022/04/30 10:52:25;485315.00;1.62;836.54;0.00;0.00;0.62;;;;;19.40;1.00;;;;;;2268420;61;874;-88
2022/04/30 10:54:56;130066.00;0.43;225.44;0.00;0.00;0.62;;;;;19.10;1.00;;;;;;2268436;61;978;-86
2022/04/30 10:57:23;78814.00;0.26;136.99;0.00;0.00;0.62;;;;;19.20;1.00;;;;;;2268430;61;1800;-86
2022/04/30 11:00:02;133866.00;0.45;232.00;0.00;0.00;0.62;;;;;18.80;1.00;;;;;;2268262;61;1676;-87
2022/04/30 11:02:33;0.00;0.00;0.62;0.00;0.00;0.62;;;;;17.70;1.00;;;;;;2268419;61;1915;-86